createdAt,value
2018-05-25T00:00:15.470Z,21.80
2018-05-25T00:01:47.272Z,23.20
2018-05-25T00:03:19.082Z,18.40
2018-05-25T00:04:51.007Z,20.10
2018-05-25T00:06:22.703Z,18.60
2018-05-25T00:07:54.515Z,20.00
2018-05-25T00:09:26.326Z,18.80
2018-05-25T00:10:58.238Z,20.60
2018-05-25T00:12:30.020Z,19.10
2018-05-25T00:14:01.760Z,20.40
2018-05-25T00:15:33.570Z,19.40
2018-05-25T00:17:05.383Z,21.80
2018-05-25T00:18:37.190Z,20.40
2018-05-25T00:20:09.003Z,18.70
2018-05-25T00:21:40.812Z,18.00
2018-05-25T00:23:12.724Z,19.70
2018-05-25T00:24:44.452Z,22.20
2018-05-25T00:26:16.246Z,20.30
2018-05-25T00:27:48.055Z,21.50
2018-05-25T00:29:19.865Z,20.00
2018-05-25T00:30:51.677Z,19.10
2018-05-25T00:32:23.485Z,19.50
2018-05-25T00:33:55.329Z,20.60
2018-05-25T00:35:27.116Z,20.60
2018-05-25T00:36:58.918Z,19.50
2018-05-25T00:38:30.728Z,19.80
2018-05-25T00:40:02.538Z,19.30
2018-05-25T00:41:34.551Z,18.80
2018-05-25T00:43:06.163Z,21.40
2018-05-25T00:44:37.974Z,18.80
2018-05-25T00:46:09.782Z,19.80
2018-05-25T00:47:41.594Z,18.40
2018-05-25T00:49:13.403Z,19.70
2018-05-25T00:50:45.215Z,21.00
2018-05-25T00:52:17.032Z,19.80
2018-05-25T00:53:48.838Z,20.90
2018-05-25T00:55:20.648Z,22.90
2018-05-25T00:56:52.457Z,23.70
2018-05-25T00:58:24.304Z,22.30
2018-05-25T00:59:56.179Z,22.30
2018-05-25T01:01:27.915Z,21.60
2018-05-25T01:02:59.711Z,22.60
2018-05-25T01:04:31.516Z,22.00
2018-05-25T01:06:03.361Z,20.90
2018-05-25T01:07:35.136Z,24.70
2018-05-25T01:09:06.945Z,22.10
2018-05-25T01:10:38.756Z,19.10
2018-05-25T01:12:10.664Z,20.80
2018-05-25T01:13:42.372Z,22.50
2018-05-25T01:15:14.183Z,20.40
2018-05-25T01:16:45.993Z,23.60
2018-05-25T01:18:17.904Z,22.50
2018-05-25T01:19:49.615Z,22.60
2018-05-25T01:21:21.425Z,19.10
2018-05-25T01:22:53.236Z,22.90
2018-05-25T01:24:25.067Z,22.20
2018-05-25T01:25:56.876Z,22.90
2018-05-25T01:27:28.668Z,22.40
2018-05-25T01:29:00.478Z,23.30
2018-05-25T01:30:32.306Z,26.60
2018-05-25T01:32:04.118Z,23.50
2018-05-25T01:33:35.911Z,23.00
2018-05-25T01:35:07.730Z,24.40
2018-05-25T01:36:39.633Z,24.60
2018-05-25T01:38:11.346Z,21.40
2018-05-25T01:39:43.155Z,20.30
2018-05-25T01:41:14.977Z,22.60
2018-05-25T01:42:46.876Z,22.10
2018-05-25T01:44:18.590Z,21.10
2018-05-25T01:45:50.397Z,19.20
2018-05-25T01:47:22.208Z,19.10
2018-05-25T01:48:54.019Z,19.80
2018-05-25T01:50:25.832Z,20.20
2018-05-25T01:51:57.656Z,22.10
2018-05-25T01:53:29.496Z,19.90
2018-05-25T01:55:01.365Z,19.20
2018-05-25T01:56:33.075Z,20.00
2018-05-25T01:58:04.888Z,20.20
2018-05-25T01:59:36.699Z,19.40
2018-05-25T02:01:08.510Z,19.90
2018-05-25T02:02:40.322Z,18.40
2018-05-25T02:04:12.133Z,17.90
2018-05-25T02:05:43.943Z,20.40
2018-05-25T02:07:15.755Z,18.70
2018-05-25T02:08:47.565Z,16.70
2018-05-25T02:10:19.377Z,19.40
2018-05-25T02:11:51.195Z,19.50
2018-05-25T02:13:23.100Z,17.60
2018-05-25T02:14:54.810Z,14.30
2018-05-25T02:16:26.620Z,15.20
2018-05-25T02:17:58.432Z,16.70
2018-05-25T02:19:30.245Z,16.30
2018-05-25T02:21:02.056Z,18.30
2018-05-25T02:22:33.864Z,16.70
2018-05-25T02:24:05.676Z,18.20
2018-05-25T02:25:37.526Z,15.20
2018-05-25T02:27:09.297Z,16.90
2018-05-25T02:28:41.107Z,15.50
2018-05-25T02:30:12.918Z,17.80
2018-05-25T02:31:44.849Z,16.70
2018-05-25T02:33:16.539Z,16.40
2018-05-25T02:34:48.349Z,16.60
2018-05-25T02:36:20.223Z,17.80
2018-05-25T02:37:51.971Z,16.40
2018-05-25T02:39:23.781Z,15.90
2018-05-25T02:40:55.609Z,17.80
2018-05-25T02:42:27.403Z,15.00
2018-05-25T02:43:59.406Z,17.70
2018-05-25T02:45:31.025Z,16.10
2018-05-25T02:47:02.838Z,17.00
2018-05-25T02:48:34.650Z,17.80
2018-05-25T02:50:06.656Z,16.90
2018-05-25T02:51:38.266Z,15.00
2018-05-25T02:53:10.076Z,17.50
2018-05-25T02:54:41.898Z,16.90
2018-05-25T02:56:13.702Z,16.20
2018-05-25T02:57:45.551Z,15.90
2018-05-25T02:59:17.321Z,14.00
2018-05-25T03:00:49.129Z,15.20
2018-05-25T03:02:20.940Z,15.60
2018-05-25T03:03:52.750Z,16.20
2018-05-25T03:05:24.562Z,18.10
2018-05-25T03:06:56.371Z,18.30
2018-05-25T03:08:28.281Z,16.10
2018-05-25T03:09:59.992Z,15.30
2018-05-25T03:11:31.815Z,14.70
2018-05-25T03:13:03.617Z,14.10
2018-05-25T03:14:35.531Z,17.60
2018-05-25T03:16:07.236Z,16.90
2018-05-25T03:17:39.043Z,18.90
2018-05-25T03:19:10.856Z,16.20
2018-05-25T03:20:43.493Z,17.70
2018-05-25T03:22:14.476Z,18.10
2018-05-25T03:23:46.291Z,18.00
2018-05-25T03:25:18.098Z,18.20
2018-05-25T03:26:50.009Z,16.30
2018-05-25T03:28:21.720Z,17.00
2018-05-25T03:29:53.534Z,17.70
2018-05-25T03:31:25.341Z,18.30
2018-05-25T03:32:57.156Z,14.90
2018-05-25T03:34:28.964Z,15.60
2018-05-25T03:36:00.780Z,17.70
2018-05-25T03:37:32.586Z,17.20
2018-05-25T03:39:04.397Z,14.80
2018-05-25T03:40:36.210Z,17.60
2018-05-25T03:42:08.020Z,18.40
2018-05-25T03:43:39.832Z,14.90
2018-05-25T03:45:11.893Z,15.90
2018-05-25T03:46:43.481Z,14.90
2018-05-25T03:48:15.265Z,16.90
2018-05-25T03:49:47.077Z,13.80
2018-05-25T03:51:18.897Z,14.80
2018-05-25T03:52:50.700Z,12.80
2018-05-25T03:54:22.517Z,14.70
2018-05-25T03:55:54.320Z,15.10
2018-05-25T03:57:26.131Z,13.70
2018-05-25T03:58:57.945Z,14.80
2018-05-25T04:00:29.754Z,15.10
2018-05-25T04:02:01.567Z,15.00
2018-05-25T04:03:33.476Z,19.00
2018-05-25T04:05:05.187Z,16.90
2018-05-25T04:06:36.998Z,22.70
2018-05-25T04:08:08.808Z,17.20
2018-05-25T04:09:40.619Z,17.00
2018-05-25T04:11:12.430Z,20.50
2018-05-25T04:12:44.241Z,17.70
2018-05-25T04:14:16.089Z,19.70
2018-05-25T04:15:47.863Z,20.80
2018-05-25T04:17:19.674Z,19.90
2018-05-25T04:18:51.485Z,22.40
2018-05-25T04:20:23.296Z,20.80
2018-05-25T04:21:55.359Z,21.40
2018-05-25T04:23:26.918Z,18.60
2018-05-25T04:24:58.729Z,18.60
2018-05-25T04:26:30.539Z,21.90
2018-05-25T04:28:02.350Z,18.30
2018-05-25T04:29:34.160Z,17.40
2018-05-25T04:31:05.970Z,17.40
2018-05-25T04:32:37.781Z,14.70
2018-05-25T04:34:09.591Z,13.10
2018-05-25T04:35:41.461Z,13.20
2018-05-25T04:37:13.212Z,11.50
2018-05-25T04:38:45.022Z,12.20
2018-05-25T04:40:17.184Z,12.70
2018-05-25T04:41:48.645Z,12.70
2018-05-25T04:43:20.508Z,14.10
2018-05-25T04:44:52.266Z,13.30
2018-05-25T04:46:24.075Z,13.10
2018-05-25T04:47:55.886Z,12.60
2018-05-25T04:49:27.699Z,12.60
2018-05-25T04:50:59.508Z,12.40
2018-05-25T04:52:31.446Z,13.20
2018-05-25T04:54:03.129Z,13.00
2018-05-25T04:55:34.940Z,14.00
2018-05-25T04:57:06.751Z,13.10
2018-05-25T04:58:38.662Z,12.60
2018-05-25T05:00:10.372Z,13.00
2018-05-25T05:01:42.183Z,12.70
2018-05-25T05:03:13.993Z,13.30
2018-05-25T05:04:45.805Z,13.60
2018-05-25T05:06:17.614Z,12.00
2018-05-25T05:07:49.428Z,12.90
2018-05-25T05:09:21.236Z,12.40
2018-05-25T05:10:53.046Z,12.00
2018-05-25T05:12:24.857Z,11.70
2018-05-25T05:13:56.670Z,11.70
2018-05-25T05:15:28.478Z,11.90
2018-05-25T05:17:00.488Z,12.40
2018-05-25T05:18:32.097Z,11.70
2018-05-25T05:20:03.908Z,14.10
2018-05-25T05:21:35.719Z,11.50
2018-05-25T05:23:07.573Z,11.80
2018-05-25T05:24:39.339Z,11.40
2018-05-25T05:26:11.150Z,10.60
2018-05-25T05:27:42.961Z,11.90
2018-05-25T05:29:14.771Z,10.50
2018-05-25T05:30:46.582Z,12.40
2018-05-25T05:32:18.392Z,11.70
2018-05-25T05:33:50.203Z,11.50
2018-05-25T05:35:22.124Z,11.40
2018-05-25T05:36:53.823Z,12.90
2018-05-25T05:38:25.633Z,11.50
2018-05-25T05:39:57.444Z,11.60
2018-05-25T05:41:29.254Z,11.50
2018-05-25T05:43:01.064Z,12.20
2018-05-25T05:44:32.875Z,10.30
2018-05-25T05:46:04.684Z,14.10
2018-05-25T05:47:36.594Z,11.60
2018-05-25T05:49:08.304Z,11.00
2018-05-25T05:50:40.115Z,10.60
2018-05-25T05:52:11.924Z,13.60
2018-05-25T05:53:43.834Z,11.30
2018-05-25T05:55:15.544Z,12.80
2018-05-25T05:56:47.355Z,11.90
2018-05-25T05:58:19.163Z,11.30
2018-05-25T05:59:50.974Z,14.60
2018-05-25T06:01:22.783Z,14.20
2018-05-25T06:02:54.594Z,12.00
2018-05-25T06:04:26.446Z,12.80
2018-05-25T06:05:58.214Z,15.00
2018-05-25T06:07:30.025Z,13.50
2018-05-25T06:09:01.837Z,13.20
2018-05-25T06:10:33.645Z,13.90
2018-05-25T06:12:05.556Z,17.40
2018-05-25T06:13:37.270Z,18.50
2018-05-25T06:15:09.077Z,13.10
2018-05-25T06:16:40.887Z,15.60
2018-05-25T06:18:12.949Z,17.00
2018-05-25T06:19:44.511Z,18.80
2018-05-25T06:21:16.318Z,19.60
2018-05-25T06:22:48.129Z,19.40
2018-05-25T06:24:19.939Z,14.40
2018-05-25T06:25:51.749Z,16.60
2018-05-25T06:27:23.559Z,17.00
2018-05-25T06:28:55.370Z,16.80
2018-05-25T06:30:27.280Z,22.30
2018-05-25T06:31:58.992Z,18.40
2018-05-25T06:33:30.799Z,21.90
2018-05-25T06:35:02.611Z,21.80
2018-05-25T06:36:34.420Z,18.60
2018-05-25T06:38:06.231Z,22.00
2018-05-25T06:39:38.041Z,19.60
2018-05-25T06:41:09.855Z,34.20
2018-05-25T06:42:41.661Z,20.90
2018-05-25T06:44:13.477Z,22.50
2018-05-25T06:45:45.282Z,26.70
2018-05-25T06:47:17.092Z,30.00
2018-05-25T06:48:49.102Z,28.30
2018-05-25T06:50:20.712Z,24.50
2018-05-25T06:51:52.522Z,26.50
2018-05-25T06:53:24.331Z,24.80
2018-05-25T06:54:56.410Z,48.80
2018-05-25T06:56:28.021Z,37.00
2018-05-25T06:57:59.890Z,34.50
2018-05-25T06:59:31.642Z,26.10
2018-05-25T07:01:03.451Z,29.60
2018-05-25T07:02:35.191Z,40.80
2018-05-25T07:04:07.002Z,41.70
2018-05-25T07:05:38.811Z,47.30
2018-05-25T07:07:10.726Z,63.90
2018-05-25T07:08:42.430Z,77.40
2018-05-25T07:10:14.240Z,68.50
2018-05-25T07:11:46.050Z,61.20
2018-05-25T07:13:17.859Z,68.00
2018-05-25T07:14:49.670Z,49.50
2018-05-25T07:16:21.479Z,55.50
2018-05-25T07:17:53.289Z,57.70
2018-05-25T07:19:25.349Z,66.60
2018-05-25T07:20:56.908Z,83.30
2018-05-25T07:22:28.719Z,99.30
2018-05-25T07:24:00.528Z,101.00
2018-05-25T07:25:32.589Z,91.00
2018-05-25T07:27:04.150Z,104.20
2018-05-25T07:28:35.959Z,98.50
2018-05-25T07:30:07.768Z,105.40
2018-05-25T07:31:39.578Z,103.30
2018-05-25T07:33:11.390Z,104.60
2018-05-25T07:34:43.198Z,107.50
2018-05-25T07:36:15.009Z,116.30
2018-05-25T07:37:46.818Z,121.20
2018-05-25T07:39:18.646Z,130.70
2018-05-25T07:40:50.439Z,127.00
2018-05-25T07:42:22.249Z,137.60
2018-05-25T07:43:54.161Z,112.30
2018-05-25T07:45:25.869Z,130.80
2018-05-25T07:46:57.680Z,135.70
2018-05-25T07:48:29.490Z,138.20
2018-05-25T07:50:01.409Z,135.20
2018-05-25T07:51:33.112Z,138.60
2018-05-25T07:53:04.921Z,131.50
2018-05-25T07:54:36.731Z,136.60
2018-05-25T07:56:08.691Z,123.00
2018-05-25T07:57:40.352Z,125.10
2018-05-25T07:59:12.164Z,120.20
2018-05-25T08:00:43.982Z,122.40
2018-05-25T08:02:15.883Z,126.40
2018-05-25T08:03:47.597Z,121.50
2018-05-25T08:05:19.403Z,126.20
2018-05-25T08:06:51.216Z,132.40
2018-05-25T08:08:23.025Z,130.20
2018-05-25T08:09:54.834Z,130.40
2018-05-25T08:11:26.645Z,113.70
2018-05-25T08:12:58.455Z,129.50
2018-05-25T08:14:30.268Z,120.80
2018-05-25T08:16:02.076Z,108.40
2018-05-25T08:17:33.887Z,121.50
2018-05-25T08:19:05.697Z,106.50
2018-05-25T08:20:37.858Z,112.20
2018-05-25T08:22:09.317Z,103.30
2018-05-25T08:23:41.131Z,97.50
2018-05-25T08:25:12.938Z,116.10
2018-05-25T08:26:44.749Z,111.90
2018-05-25T08:28:16.558Z,123.50
2018-05-25T08:29:48.366Z,116.90
2018-05-25T08:31:20.181Z,125.00
2018-05-25T08:32:51.989Z,99.60
2018-05-25T08:34:23.803Z,117.90
2018-05-25T08:35:55.609Z,112.70
2018-05-25T08:37:27.419Z,122.00
2018-05-25T08:38:59.330Z,109.90
2018-05-25T08:40:31.040Z,116.40
2018-05-25T08:42:02.850Z,118.50
2018-05-25T08:43:34.660Z,115.20
2018-05-25T08:45:06.471Z,122.30
2018-05-25T08:46:38.281Z,128.40
2018-05-25T08:48:10.092Z,123.70
2018-05-25T08:49:41.901Z,110.80
2018-05-25T08:51:13.965Z,121.70
2018-05-25T08:52:45.522Z,123.40
2018-05-25T08:54:17.334Z,115.60
2018-05-25T08:55:49.143Z,128.60
2018-05-25T08:57:21.153Z,125.90
2018-05-25T08:58:52.764Z,113.90
2018-05-25T09:00:24.576Z,102.60
2018-05-25T09:01:56.388Z,116.20
2018-05-25T09:03:28.194Z,107.90
2018-05-25T09:05:00.003Z,105.90
2018-05-25T09:06:31.815Z,114.80
2018-05-25T09:08:03.625Z,115.10
2018-05-25T09:09:35.435Z,119.00
2018-05-25T09:11:07.246Z,125.40
2018-05-25T09:12:39.056Z,119.90
2018-05-25T09:14:10.872Z,127.10
2018-05-25T09:15:42.778Z,108.20
2018-05-25T09:17:14.489Z,116.40
2018-05-25T09:18:46.299Z,119.90
2018-05-25T09:20:18.108Z,114.20
2018-05-25T09:21:50.066Z,111.20
2018-05-25T09:23:21.728Z,102.30
2018-05-25T09:24:53.540Z,117.70
2018-05-25T09:26:25.350Z,100.60
2018-05-25T09:27:57.161Z,102.30
2018-05-25T09:29:28.971Z,88.40
2018-05-25T09:31:00.782Z,82.00
2018-05-25T09:32:32.593Z,88.30
2018-05-25T09:34:04.503Z,83.30
2018-05-25T09:35:36.216Z,69.00
2018-05-25T09:37:08.026Z,81.80
2018-05-25T09:38:39.835Z,74.60
2018-05-25T09:40:11.647Z,74.10
2018-05-25T09:41:43.456Z,72.70
2018-05-25T09:43:15.267Z,71.80
2018-05-25T09:44:47.078Z,69.10
2018-05-25T09:46:18.888Z,67.40
2018-05-25T09:47:50.698Z,64.90
2018-05-25T09:49:22.509Z,61.80
2018-05-25T09:50:54.320Z,65.90
2018-05-25T09:52:26.230Z,63.40
2018-05-25T09:53:57.940Z,60.20
2018-05-25T09:55:29.750Z,60.50
2018-05-25T09:57:01.562Z,56.80
2018-05-25T09:58:33.520Z,61.10
2018-05-25T10:00:05.208Z,56.90
2018-05-25T10:01:36.990Z,63.30
2018-05-25T10:03:08.830Z,62.00
2018-05-25T10:04:40.964Z,58.00
2018-05-25T10:07:44.582Z,48.90
2018-05-25T10:09:16.244Z,51.80
2018-05-25T10:10:47.951Z,47.00
2018-05-25T10:12:19.661Z,46.90
2018-05-25T10:13:51.478Z,49.80
2018-05-25T10:15:23.282Z,46.00
2018-05-25T10:16:55.094Z,49.00
2018-05-25T10:18:26.903Z,44.30
2018-05-25T10:19:58.713Z,40.00
2018-05-25T10:21:30.523Z,38.80
2018-05-25T10:24:34.147Z,38.70
2018-05-25T10:26:06.158Z,37.60
2018-05-25T10:27:38.287Z,36.00
2018-05-25T10:29:09.575Z,39.90
2018-05-25T10:30:41.789Z,35.80
2018-05-25T10:33:45.007Z,29.70
2018-05-25T10:36:48.627Z,31.20
2018-05-25T10:38:20.510Z,24.80
2018-05-25T10:39:52.262Z,27.00
2018-05-25T10:41:24.313Z,25.60
2018-05-25T10:42:55.872Z,27.10
2018-05-25T10:44:28.213Z,23.50
2018-05-25T10:46:00.227Z,24.20
2018-05-25T10:47:31.304Z,18.30
2018-05-25T10:49:03.214Z,18.10
2018-05-25T10:50:34.924Z,18.30
2018-05-25T10:52:06.735Z,18.50
2018-05-25T10:53:38.854Z,16.10
2018-05-25T10:55:10.573Z,18.40
2018-05-25T10:56:42.169Z,18.90
2018-05-25T10:59:45.789Z,21.20
2018-05-25T11:01:17.600Z,18.50
2018-05-25T11:02:49.412Z,21.20
2018-05-25T11:04:21.223Z,18.90
2018-05-25T11:05:53.035Z,20.70
2018-05-25T11:07:24.990Z,20.50
2018-05-25T11:08:56.656Z,23.90
2018-05-25T11:10:28.473Z,25.70
2018-05-25T11:12:00.364Z,19.60
2018-05-25T11:13:32.126Z,21.90
2018-05-25T11:15:04.105Z,21.30
2018-05-25T11:16:35.713Z,23.30
2018-05-25T11:18:07.525Z,20.10
2018-05-25T11:19:39.502Z,21.90
2018-05-25T11:21:11.148Z,21.10
2018-05-25T11:22:42.959Z,22.10
2018-05-25T11:24:16.283Z,18.90
2018-05-25T11:25:46.696Z,22.20
2018-05-25T11:27:18.437Z,21.20
2018-05-25T11:28:50.524Z,21.90
2018-05-25T11:31:53.826Z,22.80
2018-05-25T11:33:25.657Z,23.30
2018-05-25T11:34:57.450Z,26.10
2018-05-25T11:36:29.634Z,24.00
2018-05-25T11:38:01.143Z,25.40
2018-05-25T11:39:32.952Z,23.60
2018-05-25T11:41:04.764Z,23.60
2018-05-25T11:42:36.505Z,23.00
2018-05-25T11:44:08.618Z,23.40
2018-05-25T11:45:40.431Z,25.20
2018-05-25T11:48:43.786Z,26.40
2018-05-25T11:50:15.562Z,25.50
2018-05-25T11:51:47.376Z,26.40
2018-05-25T11:53:19.186Z,26.10
2018-05-25T11:54:50.997Z,25.30
2018-05-25T11:56:22.809Z,28.00
2018-05-25T11:57:55.231Z,27.30
2018-05-25T11:59:26.433Z,25.90
2018-05-25T12:00:58.328Z,25.90
2018-05-25T12:02:30.156Z,25.50
2018-05-25T12:04:01.869Z,25.50
2018-05-25T12:05:33.680Z,27.90
2018-05-25T12:08:37.335Z,27.80
2018-05-25T12:10:09.193Z,26.60
2018-05-25T12:11:40.992Z,27.90
2018-05-25T12:17:48.670Z,28.80
2018-05-25T12:23:55.964Z,28.30
2018-05-25T12:25:27.258Z,28.90
2018-05-25T12:26:59.068Z,28.70
2018-05-25T12:28:30.885Z,27.80
2018-05-25T12:30:03.050Z,24.90
2018-05-25T12:31:34.718Z,27.70
2018-05-25T12:33:06.353Z,28.30
2018-05-25T12:37:41.871Z,30.40
2018-05-25T12:39:13.584Z,26.80
2018-05-25T12:40:45.399Z,28.40
2018-05-25T12:42:17.214Z,29.20
2018-05-25T12:43:49.068Z,27.50
2018-05-25T12:45:20.860Z,29.00
2018-05-25T12:46:52.656Z,31.00
2018-05-25T12:48:24.469Z,31.80
2018-05-25T12:51:28.603Z,26.90
2018-05-25T12:53:00.017Z,26.50
2018-05-25T12:54:31.727Z,26.40
2018-05-25T12:56:03.538Z,26.50
2018-05-25T12:57:36.102Z,29.90
2018-05-25T12:59:07.166Z,29.40
2018-05-25T13:00:38.980Z,29.00
2018-05-25T13:02:10.795Z,28.60
2018-05-25T13:03:42.811Z,28.70
2018-05-25T13:05:14.425Z,26.00
2018-05-25T13:06:46.239Z,27.10
2018-05-25T13:08:18.358Z,24.80
2018-05-25T13:09:50.174Z,24.20
2018-05-25T13:11:21.742Z,27.60
2018-05-25T13:12:53.506Z,28.00
2018-05-25T13:14:25.318Z,23.50
2018-05-25T13:15:57.232Z,26.50
2018-05-25T13:17:28.947Z,24.20
2018-05-25T13:19:00.827Z,26.50
2018-05-25T13:22:04.606Z,27.70
2018-05-25T13:23:36.212Z,23.80
2018-05-25T13:25:08.293Z,24.30
2018-05-25T13:26:40.864Z,23.40
2018-05-25T13:28:11.715Z,22.50
2018-05-25T13:34:19.224Z,22.00
2018-05-25T13:38:54.402Z,22.40
2018-05-25T13:40:26.181Z,23.70
2018-05-25T13:41:57.997Z,23.00
2018-05-25T13:43:29.812Z,21.80
2018-05-25T13:45:01.662Z,22.00
2018-05-25T13:46:34.371Z,21.90
2018-05-25T13:48:05.258Z,23.70
2018-05-25T13:49:37.662Z,24.00
2018-05-25T13:51:09.499Z,24.50
2018-05-25T13:52:41.327Z,24.50
2018-05-25T13:54:13.076Z,20.90
2018-05-25T13:55:44.396Z,24.20
2018-05-25T14:00:19.780Z,22.30
2018-05-25T14:01:52.725Z,23.10
2018-05-25T14:03:23.479Z,20.60
2018-05-25T14:04:55.228Z,20.60
2018-05-25T14:06:27.045Z,23.10
2018-05-25T14:07:58.919Z,20.80
2018-05-25T14:09:30.998Z,24.50
2018-05-25T14:11:02.495Z,21.60
2018-05-25T14:12:34.912Z,21.80
2018-05-25T14:14:06.126Z,22.90
2018-05-25T14:15:38.744Z,23.10
2018-05-25T14:18:41.575Z,22.20
2018-05-25T14:21:45.208Z,23.00
2018-05-25T14:23:17.155Z,21.80
2018-05-25T14:24:49.258Z,23.00
2018-05-25T14:26:20.657Z,23.00
2018-05-25T14:29:24.491Z,24.30
2018-05-25T14:30:56.322Z,22.40
2018-05-25T14:32:28.046Z,21.40
2018-05-25T14:33:59.946Z,21.80
2018-05-25T14:35:32.282Z,20.80
2018-05-25T14:37:03.877Z,24.80
2018-05-25T14:38:35.829Z,23.40
2018-05-25T14:41:41.880Z,24.10
2018-05-25T14:43:11.164Z,23.20
2018-05-25T14:44:42.665Z,24.00
2018-05-25T14:46:14.584Z,29.50
2018-05-25T14:49:19.291Z,28.20
2018-05-25T14:52:21.747Z,26.80
2018-05-25T14:53:53.370Z,31.20
2018-05-25T14:55:25.182Z,29.90
2018-05-25T14:56:56.998Z,28.60
2018-05-25T14:58:28.813Z,33.70
2018-05-25T15:00:00.634Z,32.00
2018-05-25T15:01:32.804Z,27.10
2018-05-25T15:03:04.826Z,32.10
2018-05-25T15:04:36.159Z,31.60
2018-05-25T15:06:07.949Z,27.60
2018-05-25T15:07:39.815Z,29.30
2018-05-25T15:09:11.532Z,26.60
2018-05-25T15:10:43.380Z,28.70
2018-05-25T15:12:15.168Z,26.60
2018-05-25T15:13:46.988Z,25.90
2018-05-25T15:15:18.803Z,25.90
2018-05-25T15:16:50.823Z,26.80
2018-05-25T15:19:54.257Z,26.20
2018-05-25T15:21:26.410Z,27.70
2018-05-25T15:22:57.897Z,23.30
2018-05-25T15:24:29.713Z,22.60
2018-05-25T15:26:01.963Z,21.00
2018-05-25T15:27:33.349Z,21.60
2018-05-25T15:29:05.167Z,21.40
2018-05-25T15:30:36.987Z,20.60
2018-05-25T15:32:08.806Z,21.70
2018-05-25T15:33:41.301Z,25.10
2018-05-25T15:35:12.445Z,23.10
2018-05-25T15:36:45.025Z,21.90
2018-05-25T15:38:16.387Z,23.40
2018-05-25T15:41:20.078Z,23.00
2018-05-25T15:42:51.541Z,18.10
2018-05-25T15:45:55.283Z,18.60
2018-05-25T15:47:27.013Z,18.90
2018-05-25T15:48:58.844Z,20.30
2018-05-25T15:50:30.639Z,21.70
2018-05-25T15:53:34.503Z,22.50
2018-05-25T15:55:06.396Z,22.30
2018-05-25T15:56:37.912Z,21.80
2018-05-25T15:58:09.763Z,23.10
2018-05-25T15:59:41.552Z,22.30
2018-05-25T16:01:13.866Z,22.00
2018-05-25T16:02:45.419Z,20.20
2018-05-25T16:04:17.005Z,22.50
2018-05-25T16:05:48.928Z,20.60
2018-05-25T16:07:20.644Z,20.10
2018-05-25T16:08:52.818Z,20.20
2018-05-25T16:10:24.488Z,19.40
2018-05-25T16:11:56.459Z,19.40
2018-05-25T16:14:59.947Z,20.10
2018-05-25T16:16:31.826Z,19.40
2018-05-25T16:18:03.419Z,19.10
2018-05-25T16:19:35.207Z,20.10
2018-05-25T16:21:07.029Z,18.60
2018-05-25T16:22:38.874Z,20.00
2018-05-25T16:24:11.044Z,21.10
2018-05-25T16:25:42.692Z,19.30
2018-05-25T16:27:14.311Z,20.20
2018-05-25T16:28:46.184Z,19.10
2018-05-25T16:30:17.948Z,19.00
2018-05-25T16:33:21.606Z,17.90
2018-05-25T16:34:53.639Z,16.90
2018-05-25T16:36:25.426Z,18.70
2018-05-25T16:37:57.045Z,19.70
2018-05-25T16:41:00.682Z,18.50
2018-05-25T16:42:32.601Z,17.30
2018-05-25T16:44:04.320Z,19.00
2018-05-25T16:45:36.159Z,18.10
2018-05-25T16:47:08.091Z,17.70
2018-05-25T16:48:40.081Z,17.30
2018-05-25T16:50:11.941Z,17.90
2018-05-25T16:51:43.421Z,17.90
2018-05-25T16:53:15.249Z,16.70
2018-05-25T16:54:47.053Z,16.50
2018-05-25T16:56:18.901Z,16.80
2018-05-25T17:00:54.429Z,15.80
2018-05-25T17:02:26.148Z,16.30
2018-05-25T17:03:58.173Z,15.80
2018-05-25T17:08:33.507Z,15.50
2018-05-25T17:10:05.787Z,18.50
2018-05-25T17:11:37.075Z,17.20
2018-05-25T17:13:08.914Z,17.10
2018-05-25T17:14:40.698Z,19.40
2018-05-25T17:16:12.517Z,18.10
2018-05-25T17:17:45.252Z,18.50
2018-05-25T17:19:16.152Z,18.50
2018-05-25T17:20:48.382Z,18.60
2018-05-25T17:22:20.113Z,15.60
2018-05-25T17:23:51.640Z,16.60
2018-05-25T17:25:24.063Z,14.50
2018-05-25T17:26:55.296Z,16.50
2018-05-25T17:28:27.065Z,16.90
2018-05-25T17:29:59.088Z,16.00
2018-05-25T17:31:30.706Z,17.70
2018-05-25T17:33:02.784Z,17.90
2018-05-25T17:34:34.708Z,23.20
2018-05-25T17:36:06.177Z,24.20
2018-05-25T17:37:37.986Z,21.30
2018-05-25T17:39:10.457Z,21.80
2018-05-25T17:40:41.672Z,22.30
2018-05-25T17:43:45.499Z,25.20
2018-05-25T17:45:17.348Z,21.80
2018-05-25T17:48:21.034Z,26.10
2018-05-25T17:51:24.534Z,26.90
2018-05-25T17:52:56.865Z,22.80
2018-05-25T17:54:28.012Z,22.50
2018-05-25T17:55:59.833Z,23.60
2018-05-25T17:57:32.119Z,20.60
2018-05-25T17:59:03.477Z,21.80
2018-05-25T18:00:35.648Z,23.60
2018-05-25T18:02:07.118Z,23.50
2018-05-25T18:03:38.939Z,22.90
2018-05-25T18:05:10.759Z,22.30
2018-05-25T18:06:42.922Z,21.80
2018-05-25T18:08:14.702Z,21.90
2018-05-25T18:09:46.225Z,22.20
2018-05-25T18:11:18.241Z,21.50
2018-05-25T18:12:49.965Z,20.30
2018-05-25T18:14:22.275Z,21.60
2018-05-25T18:15:54.400Z,22.40
2018-05-25T18:17:25.360Z,21.50
2018-05-25T18:18:57.292Z,22.00
2018-05-25T18:20:29.055Z,23.30
2018-05-25T18:22:00.787Z,22.00
2018-05-25T18:25:04.516Z,20.20
2018-05-25T18:28:08.094Z,23.30
2018-05-25T18:31:12.442Z,23.30
2018-05-25T18:32:43.786Z,21.60
2018-05-25T18:34:15.835Z,22.10
2018-05-25T18:35:47.877Z,20.00
2018-05-25T18:37:19.012Z,22.20
2018-05-25T18:40:23.081Z,23.10
2018-05-25T18:41:54.416Z,21.80
2018-05-25T18:44:58.790Z,19.80
2018-05-25T18:46:29.879Z,21.70
2018-05-25T18:48:01.647Z,19.40
2018-05-25T18:49:34.003Z,17.80
2018-05-25T18:51:05.476Z,22.70
2018-05-25T18:54:09.086Z,19.70
2018-05-25T18:55:40.718Z,22.60
2018-05-25T18:57:12.735Z,21.20
2018-05-25T18:58:44.376Z,20.00
2018-05-25T19:00:16.370Z,21.80
2018-05-25T19:01:47.977Z,18.80
2018-05-25T19:03:19.894Z,20.10
2018-05-25T19:04:52.294Z,19.50
2018-05-25T19:06:23.421Z,19.10
2018-05-25T19:07:55.311Z,22.40
2018-05-25T19:09:27.779Z,21.50
2018-05-25T19:12:30.793Z,20.80
2018-05-25T19:14:02.695Z,20.80
2018-05-25T19:15:34.611Z,21.00
2018-05-25T19:17:06.188Z,23.40
2018-05-25T19:18:38.460Z,22.10
2018-05-25T19:20:09.751Z,21.20
2018-05-25T19:21:41.598Z,23.60
2018-05-25T19:23:13.684Z,22.80
2018-05-25T19:26:17.313Z,19.80
2018-05-25T19:27:48.824Z,20.70
2018-05-25T19:29:20.943Z,18.20
2018-05-25T19:30:52.454Z,18.40
2018-05-25T19:32:24.567Z,19.70
2018-05-25T19:33:56.663Z,15.80
2018-05-25T19:37:03.473Z,16.40
2018-05-25T19:38:31.529Z,16.70
2018-05-25T19:40:03.344Z,16.60
2018-05-25T19:41:35.362Z,17.70
2018-05-25T19:43:07.478Z,18.60
2018-05-25T19:44:38.789Z,18.40
2018-05-25T19:46:10.912Z,19.00
2018-05-25T19:50:46.349Z,18.60
2018-05-25T19:52:17.892Z,19.20
2018-05-25T19:53:50.610Z,18.90
2018-05-25T19:55:21.793Z,20.40
2018-05-25T19:56:53.304Z,18.50
2018-05-25T19:58:25.119Z,19.10
2018-05-25T19:59:56.933Z,21.10
2018-05-25T20:01:28.769Z,20.40
2018-05-25T20:03:00.558Z,21.00
2018-05-25T20:04:32.371Z,24.80
2018-05-25T20:06:04.184Z,21.40
2018-05-25T20:07:35.997Z,21.20
2018-05-25T20:09:07.911Z,24.10
2018-05-25T20:10:39.826Z,24.20
2018-05-25T20:12:11.739Z,25.00
2018-05-25T20:13:43.248Z,24.90
2018-05-25T20:15:15.061Z,26.90
2018-05-25T20:16:46.873Z,23.00
2018-05-25T20:18:18.686Z,21.90
2018-05-25T20:19:51.024Z,21.40
2018-05-25T20:21:22.310Z,23.40
2018-05-25T20:22:54.129Z,24.70
2018-05-25T20:24:26.028Z,21.00
2018-05-25T20:25:57.747Z,21.20
2018-05-25T20:27:29.667Z,20.40
2018-05-25T20:29:01.371Z,19.00
2018-05-25T20:30:33.183Z,18.70
2018-05-25T20:32:04.994Z,20.20
2018-05-25T20:33:36.809Z,19.30
2018-05-25T20:35:08.715Z,18.50
2018-05-25T20:36:40.431Z,19.50
2018-05-25T20:38:12.246Z,20.20
2018-05-25T20:39:44.155Z,19.30
2018-05-25T20:41:15.868Z,19.30
2018-05-25T20:42:47.679Z,17.10
2018-05-25T20:44:19.491Z,18.50
2018-05-25T20:45:52.054Z,18.00
2018-05-25T20:47:23.115Z,15.70
2018-05-25T20:48:54.946Z,17.10
2018-05-25T20:50:26.739Z,16.80
2018-05-25T20:51:58.751Z,13.40
2018-05-25T20:53:30.362Z,14.60
2018-05-25T20:55:02.177Z,15.90
2018-05-25T20:56:34.494Z,14.50
2018-05-25T20:58:05.798Z,13.90
2018-05-25T20:59:37.609Z,14.60
2018-05-25T21:01:09.421Z,13.30
2018-05-25T21:02:41.238Z,15.20
2018-05-25T21:04:13.144Z,13.80